Terminal Aerodrome Forecast
Issued by NWS Lubbock, TX

Home | Current Version | Previous Version | Text Only | Print | Product List | Glossary On
Versions: 1 2 3 4 5 6 7 8 9 10 11 12 13 14 15 16
000
FTUS44 KLUB 311100
TAFLBB
TAF
KLBB 311120Z 3112/0112 02010KT P6SM BKN025 OVC170
      TEMPO 3112/3114 OVC015
     FM311700 06010KT P6SM SCT050 BKN120=

USA.gov is the U.S. government's official web portal to all federal, state and local government web resources and services.